sensor_id;sensor_type;location;lat;lon;timestamp;P1;durP1;ratioP1;P2;durP2;ratioP2
27039;SDS011;14589;51.578;7.306;2022-07-10T00:01:17;3.88;;;1.00;;
27039;SDS011;14589;51.578;7.306;2022-07-10T00:03:42;2.55;;;0.75;;
27039;SDS011;14589;51.578;7.306;2022-07-10T00:06:09;7.70;;;1.13;;
27039;SDS011;14589;51.578;7.306;2022-07-10T00:08:35;3.75;;;0.82;;
27039;SDS011;14589;51.578;7.306;2022-07-10T00:11:03;4.03;;;1.10;;
27039;SDS011;14589;51.578;7.306;2022-07-10T00:13:28;4.15;;;0.90;;
27039;SDS011;14589;51.578;7.306;2022-07-10T00:15:54;3.25;;;1.08;;
27039;SDS011;14589;51.578;7.306;2022-07-10T00:18:19;2.30;;;0.75;;
27039;SDS011;14589;51.578;7.306;2022-07-10T00:20:44;3.22;;;0.98;;
27039;SDS011;14589;51.578;7.306;2022-07-10T00:23:10;3.03;;;0.93;;
27039;SDS011;14589;51.578;7.306;2022-07-10T00:25:35;2.33;;;0.82;;
27039;SDS011;14589;51.578;7.306;2022-07-10T00:28:00;2.45;;;0.82;;
27039;SDS011;14589;51.578;7.306;2022-07-10T00:30:26;5.03;;;1.17;;
27039;SDS011;14589;51.578;7.306;2022-07-10T00:32:52;3.78;;;0.85;;
27039;SDS011;14589;51.578;7.306;2022-07-10T00:35:17;5.30;;;0.85;;
27039;SDS011;14589;51.578;7.306;2022-07-10T00:37:42;8.77;;;1.08;;
27039;SDS011;14589;51.578;7.306;2022-07-10T00:40:08;8.05;;;1.23;;
27039;SDS011;14589;51.578;7.306;2022-07-10T00:42:33;3.10;;;0.80;;
27039;SDS011;14589;51.578;7.306;2022-07-10T00:44:59;5.68;;;0.98;;
27039;SDS011;14589;51.578;7.306;2022-07-10T00:47:24;5.78;;;1.02;;
27039;SDS011;14589;51.578;7.306;2022-07-10T00:49:49;5.15;;;0.70;;
27039;SDS011;14589;51.578;7.306;2022-07-10T00:52:16;4.88;;;1.00;;
27039;SDS011;14589;51.578;7.306;2022-07-10T00:54:42;2.95;;;0.70;;
27039;SDS011;14589;51.578;7.306;2022-07-10T00:57:10;5.97;;;0.93;;
27039;SDS011;14589;51.578;7.306;2022-07-10T00:59:37;4.72;;;0.73;;
27039;SDS011;14589;51.578;7.306;2022-07-10T01:02:03;3.35;;;0.80;;
27039;SDS011;14589;51.578;7.306;2022-07-10T01:04:30;4.45;;;1.00;;
27039;SDS011;14589;51.578;7.306;2022-07-10T01:06:56;4.65;;;1.10;;
27039;SDS011;14589;51.578;7.306;2022-07-10T01:09:22;6.10;;;1.27;;
27039;SDS011;14589;51.578;7.306;2022-07-10T01:11:48;4.97;;;1.08;;
27039;SDS011;14589;51.578;7.306;2022-07-10T01:14:14;5.85;;;1.00;;
27039;SDS011;14589;51.578;7.306;2022-07-10T01:16:40;6.50;;;1.08;;
27039;SDS011;14589;51.578;7.306;2022-07-10T01:19:06;6.55;;;1.00;;
27039;SDS011;14589;51.578;7.306;2022-07-10T01:21:35;3.63;;;0.88;;
27039;SDS011;14589;51.578;7.306;2022-07-10T01:24:08;5.15;;;0.70;;
27039;SDS011;14589;51.578;7.306;2022-07-10T01:26:35;3.67;;;0.90;;
27039;SDS011;14589;51.578;7.306;2022-07-10T01:29:05;5.10;;;1.05;;
27039;SDS011;14589;51.578;7.306;2022-07-10T01:31:31;5.32;;;1.00;;
27039;SDS011;14589;51.578;7.306;2022-07-10T01:33:57;3.60;;;0.90;;
27039;SDS011;14589;51.578;7.306;2022-07-10T01:36:24;1.88;;;1.00;;
27039;SDS011;14589;51.578;7.306;2022-07-10T01:38:53;5.93;;;1.13;;
27039;SDS011;14589;51.578;7.306;2022-07-10T01:41:19;5.80;;;1.13;;
27039;SDS011;14589;51.578;7.306;2022-07-10T01:43:45;6.43;;;1.00;;
27039;SDS011;14589;51.578;7.306;2022-07-10T01:46:11;6.78;;;1.00;;
27039;SDS011;14589;51.578;7.306;2022-07-10T01:48:37;4.80;;;1.25;;
27039;SDS011;14589;51.578;7.306;2022-07-10T01:51:04;3.53;;;1.00;;
27039;SDS011;14589;51.578;7.306;2022-07-10T01:53:30;6.50;;;1.30;;
27039;SDS011;14589;51.578;7.306;2022-07-10T01:55:56;7.55;;;1.42;;
27039;SDS011;14589;51.578;7.306;2022-07-10T01:58:24;5.22;;;1.02;;
27039;SDS011;14589;51.578;7.306;2022-07-10T02:00:50;6.18;;;1.10;;
27039;SDS011;14589;51.578;7.306;2022-07-10T02:03:15;6.30;;;1.10;;
27039;SDS011;14589;51.578;7.306;2022-07-10T02:05:59;4.13;;;1.02;;
27039;SDS011;14589;51.578;7.306;2022-07-10T02:08:25;8.93;;;1.17;;
27039;SDS011;14589;51.578;7.306;2022-07-10T02:10:50;4.20;;;1.13;;
27039;SDS011;14589;51.578;7.306;2022-07-10T02:13:16;5.55;;;1.30;;
27039;SDS011;14589;51.578;7.306;2022-07-10T02:15:45;7.32;;;1.52;;
27039;SDS011;14589;51.578;7.306;2022-07-10T02:18:11;5.70;;;1.30;;
27039;SDS011;14589;51.578;7.306;2022-07-10T02:20:37;4.13;;;1.25;;
27039;SDS011;14589;51.578;7.306;2022-07-10T02:23:03;4.28;;;1.17;;
27039;SDS011;14589;51.578;7.306;2022-07-10T02:25:28;5.38;;;1.25;;
27039;SDS011;14589;51.578;7.306;2022-07-10T02:27:54;3.25;;;1.35;;
27039;SDS011;14589;51.578;7.306;2022-07-10T02:30:19;6.93;;;1.35;;
27039;SDS011;14589;51.578;7.306;2022-07-10T02:32:45;2.45;;;1.15;;
27039;SDS011;14589;51.578;7.306;2022-07-10T02:35:11;6.45;;;1.10;;
27039;SDS011;14589;51.578;7.306;2022-07-10T02:37:36;4.32;;;1.15;;
27039;SDS011;14589;51.578;7.306;2022-07-10T02:40:02;4.85;;;1.67;;
27039;SDS011;14589;51.578;7.306;2022-07-10T02:42:27;4.00;;;1.27;;
27039;SDS011;14589;51.578;7.306;2022-07-10T02:44:53;5.15;;;1.15;;
27039;SDS011;14589;51.578;7.306;2022-07-10T02:47:18;7.18;;;1.50;;
27039;SDS011;14589;51.578;7.306;2022-07-10T02:49:44;7.80;;;1.15;;
27039;SDS011;14589;51.578;7.306;2022-07-10T02:52:09;4.22;;;1.00;;
27039;SDS011;14589;51.578;7.306;2022-07-10T02:54:35;6.40;;;1.00;;
27039;SDS011;14589;51.578;7.306;2022-07-10T02:57:01;6.13;;;1.27;;
27039;SDS011;14589;51.578;7.306;2022-07-10T02:59:26;2.50;;;1.00;;
27039;SDS011;14589;51.578;7.306;2022-07-10T03:01:51;8.38;;;1.10;;
27039;SDS011;14589;51.578;7.306;2022-07-10T03:04:17;11.63;;;1.25;;
27039;SDS011;14589;51.578;7.306;2022-07-10T03:06:43;6.32;;;1.02;;
27039;SDS011;14589;51.578;7.306;2022-07-10T03:09:08;3.83;;;1.23;;
27039;SDS011;14589;51.578;7.306;2022-07-10T03:11:33;3.13;;;0.85;;
27039;SDS011;14589;51.578;7.306;2022-07-10T03:13:59;7.85;;;1.58;;
27039;SDS011;14589;51.578;7.306;2022-07-10T03:16:24;7.13;;;1.35;;
27039;SDS011;14589;51.578;7.306;2022-07-10T03:18:50;7.50;;;1.25;;
27039;SDS011;14589;51.578;7.306;2022-07-10T03:21:15;5.57;;;1.33;;
27039;SDS011;14589;51.578;7.306;2022-07-10T03:23:40;6.57;;;1.40;;
27039;SDS011;14589;51.578;7.306;2022-07-10T03:26:06;4.43;;;1.35;;
27039;SDS011;14589;51.578;7.306;2022-07-10T03:28:31;4.20;;;1.30;;
27039;SDS011;14589;51.578;7.306;2022-07-10T03:30:56;8.38;;;1.08;;
27039;SDS011;14589;51.578;7.306;2022-07-10T03:33:22;5.95;;;1.20;;
27039;SDS011;14589;51.578;7.306;2022-07-10T03:35:47;5.20;;;1.55;;
27039;SDS011;14589;51.578;7.306;2022-07-10T03:38:13;7.70;;;1.52;;
27039;SDS011;14589;51.578;7.306;2022-07-10T03:40:39;6.20;;;1.17;;
27039;SDS011;14589;51.578;7.306;2022-07-10T03:43:04;6.25;;;1.30;;
27039;SDS011;14589;51.578;7.306;2022-07-10T03:45:30;6.32;;;1.20;;
27039;SDS011;14589;51.578;7.306;2022-07-10T03:47:55;4.00;;;1.17;;
27039;SDS011;14589;51.578;7.306;2022-07-10T03:50:21;5.95;;;1.25;;
27039;SDS011;14589;51.578;7.306;2022-07-10T03:52:46;5.15;;;1.08;;
27039;SDS011;14589;51.578;7.306;2022-07-10T03:55:11;5.65;;;1.25;;
27039;SDS011;14589;51.578;7.306;2022-07-10T03:57:37;6.63;;;1.20;;
27039;SDS011;14589;51.578;7.306;2022-07-10T04:00:22;7.80;;;1.60;;
27039;SDS011;14589;51.578;7.306;2022-07-10T04:02:53;5.95;;;1.00;;
27039;SDS011;14589;51.578;7.306;2022-07-10T04:05:20;5.10;;;1.33;;
27039;SDS011;14589;51.578;7.306;2022-07-10T04:07:46;9.18;;;1.40;;
27039;SDS011;14589;51.578;7.306;2022-07-10T04:10:11;6.05;;;1.20;;
27039;SDS011;14589;51.578;7.306;2022-07-10T04:12:36;5.70;;;1.23;;
27039;SDS011;14589;51.578;7.306;2022-07-10T04:15:02;5.88;;;1.17;;
27039;SDS011;14589;51.578;7.306;2022-07-10T04:17:27;4.47;;;1.27;;
27039;SDS011;14589;51.578;7.306;2022-07-10T04:19:54;6.38;;;1.30;;
27039;SDS011;14589;51.578;7.306;2022-07-10T04:22:19;6.88;;;1.80;;
27039;SDS011;14589;51.578;7.306;2022-07-10T04:24:45;5.93;;;1.30;;
27039;SDS011;14589;51.578;7.306;2022-07-10T04:27:10;6.00;;;1.60;;
27039;SDS011;14589;51.578;7.306;2022-07-10T04:29:36;4.68;;;1.17;;
27039;SDS011;14589;51.578;7.306;2022-07-10T04:32:01;8.48;;;1.58;;
27039;SDS011;14589;51.578;7.306;2022-07-10T04:34:27;5.75;;;1.10;;
27039;SDS011;14589;51.578;7.306;2022-07-10T04:36:52;7.78;;;1.42;;
27039;SDS011;14589;51.578;7.306;2022-07-10T04:39:18;6.03;;;1.35;;
27039;SDS011;14589;51.578;7.306;2022-07-10T04:41:43;4.53;;;1.23;;
27039;SDS011;14589;51.578;7.306;2022-07-10T04:44:10;6.18;;;1.40;;
27039;SDS011;14589;51.578;7.306;2022-07-10T04:46:35;12.60;;;1.67;;
27039;SDS011;14589;51.578;7.306;2022-07-10T04:49:00;9.13;;;1.40;;
27039;SDS011;14589;51.578;7.306;2022-07-10T04:51:26;5.32;;;1.33;;
27039;SDS011;14589;51.578;7.306;2022-07-10T04:53:52;3.88;;;1.20;;
27039;SDS011;14589;51.578;7.306;2022-07-10T04:56:17;5.88;;;1.40;;
27039;SDS011;14589;51.578;7.306;2022-07-10T04:58:43;4.82;;;1.23;;
27039;SDS011;14589;51.578;7.306;2022-07-10T05:01:08;8.82;;;1.33;;
27039;SDS011;14589;51.578;7.306;2022-07-10T05:03:34;4.47;;;2.17;;
27039;SDS011;14589;51.578;7.306;2022-07-10T05:06:00;2.65;;;1.00;;
27039;SDS011;14589;51.578;7.306;2022-07-10T05:08:25;8.93;;;1.20;;
27039;SDS011;14589;51.578;7.306;2022-07-10T05:10:51;4.32;;;1.17;;
27039;SDS011;14589;51.578;7.306;2022-07-10T05:13:16;6.03;;;1.17;;
27039;SDS011;14589;51.578;7.306;2022-07-10T05:15:42;10.40;;;1.67;;
27039;SDS011;14589;51.578;7.306;2022-07-10T05:18:07;7.20;;;1.38;;
27039;SDS011;14589;51.578;7.306;2022-07-10T05:20:33;6.20;;;1.67;;
27039;SDS011;14589;51.578;7.306;2022-07-10T05:23:00;6.97;;;1.35;;
27039;SDS011;14589;51.578;7.306;2022-07-10T05:25:25;8.32;;;1.35;;
27039;SDS011;14589;51.578;7.306;2022-07-10T05:27:55;4.95;;;1.45;;
27039;SDS011;14589;51.578;7.306;2022-07-10T05:30:21;8.13;;;1.30;;
27039;SDS011;14589;51.578;7.306;2022-07-10T05:32:47;2.85;;;1.27;;
27039;SDS011;14589;51.578;7.306;2022-07-10T05:35:13;4.28;;;1.30;;
27039;SDS011;14589;51.578;7.306;2022-07-10T05:37:39;5.32;;;1.17;;
27039;SDS011;14589;51.578;7.306;2022-07-10T05:40:05;6.65;;;1.17;;
27039;SDS011;14589;51.578;7.306;2022-07-10T05:42:31;6.13;;;1.33;;
27039;SDS011;14589;51.578;7.306;2022-07-10T05:44:57;5.68;;;1.25;;
27039;SDS011;14589;51.578;7.306;2022-07-10T05:47:22;9.20;;;1.33;;
27039;SDS011;14589;51.578;7.306;2022-07-10T05:49:48;4.82;;;1.10;;
27039;SDS011;14589;51.578;7.306;2022-07-10T05:52:13;6.13;;;1.50;;
27039;SDS011;14589;51.578;7.306;2022-07-10T05:54:38;9.00;;;1.80;;
27039;SDS011;14589;51.578;7.306;2022-07-10T05:57:04;11.27;;;1.50;;
27039;SDS011;14589;51.578;7.306;2022-07-10T05:59:33;6.93;;;1.23;;
27039;SDS011;14589;51.578;7.306;2022-07-10T06:01:59;5.18;;;1.13;;
27039;SDS011;14589;51.578;7.306;2022-07-10T06:04:24;6.30;;;1.17;;
27039;SDS011;14589;51.578;7.306;2022-07-10T06:06:50;4.25;;;1.48;;
27039;SDS011;14589;51.578;7.306;2022-07-10T06:09:15;7.72;;;1.45;;
27039;SDS011;14589;51.578;7.306;2022-07-10T06:11:40;7.18;;;1.17;;
27039;SDS011;14589;51.578;7.306;2022-07-10T06:14:07;5.78;;;1.17;;
27039;SDS011;14589;51.578;7.306;2022-07-10T06:16:32;6.43;;;1.25;;
27039;SDS011;14589;51.578;7.306;2022-07-10T06:18:58;3.80;;;1.00;;
27039;SDS011;14589;51.578;7.306;2022-07-10T06:21:23;5.13;;;1.02;;
27039;SDS011;14589;51.578;7.306;2022-07-10T06:23:48;5.63;;;1.02;;
27039;SDS011;14589;51.578;7.306;2022-07-10T06:26:14;6.65;;;1.45;;
27039;SDS011;14589;51.578;7.306;2022-07-10T06:28:39;9.63;;;1.65;;
27039;SDS011;14589;51.578;7.306;2022-07-10T06:31:05;6.53;;;1.25;;
27039;SDS011;14589;51.578;7.306;2022-07-10T06:33:31;6.15;;;1.48;;
27039;SDS011;14589;51.578;7.306;2022-07-10T06:35:57;5.05;;;1.05;;
27039;SDS011;14589;51.578;7.306;2022-07-10T06:38:23;6.65;;;1.42;;
27039;SDS011;14589;51.578;7.306;2022-07-10T06:40:48;8.82;;;1.13;;
27039;SDS011;14589;51.578;7.306;2022-07-10T06:43:15;5.43;;;1.23;;
27039;SDS011;14589;51.578;7.306;2022-07-10T06:45:40;7.63;;;1.50;;
27039;SDS011;14589;51.578;7.306;2022-07-10T06:48:06;6.00;;;1.20;;
27039;SDS011;14589;51.578;7.306;2022-07-10T06:50:32;6.28;;;1.17;;
27039;SDS011;14589;51.578;7.306;2022-07-10T06:52:59;7.28;;;1.30;;
27039;SDS011;14589;51.578;7.306;2022-07-10T06:55:25;3.08;;;1.13;;
27039;SDS011;14589;51.578;7.306;2022-07-10T06:57:51;10.27;;;1.77;;
27039;SDS011;14589;51.578;7.306;2022-07-10T07:00:17;7.47;;;1.50;;
27039;SDS011;14589;51.578;7.306;2022-07-10T07:02:42;4.32;;;0.90;;
27039;SDS011;14589;51.578;7.306;2022-07-10T07:05:08;7.97;;;2.08;;
27039;SDS011;14589;51.578;7.306;2022-07-10T07:07:34;7.00;;;1.55;;
27039;SDS011;14589;51.578;7.306;2022-07-10T07:10:01;3.72;;;0.88;;
27039;SDS011;14589;51.578;7.306;2022-07-10T07:12:28;5.60;;;1.30;;
27039;SDS011;14589;51.578;7.306;2022-07-10T07:14:53;7.50;;;1.45;;
27039;SDS011;14589;51.578;7.306;2022-07-10T07:17:19;4.10;;;1.33;;
27039;SDS011;14589;51.578;7.306;2022-07-10T07:19:49;10.73;;;1.60;;
27039;SDS011;14589;51.578;7.306;2022-07-10T07:22:33;3.70;;;1.15;;
27039;SDS011;14589;51.578;7.306;2022-07-10T07:25:17;6.50;;;1.02;;
27039;SDS011;14589;51.578;7.306;2022-07-10T07:27:42;5.60;;;1.40;;
27039;SDS011;14589;51.578;7.306;2022-07-10T07:30:09;5.30;;;1.35;;
27039;SDS011;14589;51.578;7.306;2022-07-10T07:32:36;7.82;;;1.20;;
27039;SDS011;14589;51.578;7.306;2022-07-10T07:35:03;12.57;;;2.05;;
27039;SDS011;14589;51.578;7.306;2022-07-10T07:37:39;2.67;;;1.13;;
27039;SDS011;14589;51.578;7.306;2022-07-10T07:40:06;3.78;;;1.27;;
27039;SDS011;14589;51.578;7.306;2022-07-10T07:42:34;5.18;;;0.93;;
27039;SDS011;14589;51.578;7.306;2022-07-10T07:45:00;6.10;;;1.00;;
27039;SDS011;14589;51.578;7.306;2022-07-10T07:47:26;9.60;;;1.60;;
27039;SDS011;14589;51.578;7.306;2022-07-10T07:49:52;7.72;;;1.30;;
27039;SDS011;14589;51.578;7.306;2022-07-10T07:52:17;10.05;;;1.45;;
27039;SDS011;14589;51.578;7.306;2022-07-10T07:54:43;10.07;;;1.30;;
27039;SDS011;14589;51.578;7.306;2022-07-10T07:57:08;10.43;;;1.38;;
27039;SDS011;14589;51.578;7.306;2022-07-10T07:59:33;6.45;;;1.27;;
27039;SDS011;14589;51.578;7.306;2022-07-10T08:01:59;4.53;;;1.00;;
27039;SDS011;14589;51.578;7.306;2022-07-10T08:04:25;3.35;;;1.20;;
27039;SDS011;14589;51.578;7.306;2022-07-10T08:06:51;6.57;;;1.30;;
27039;SDS011;14589;51.578;7.306;2022-07-10T08:09:20;3.33;;;1.10;;
27039;SDS011;14589;51.578;7.306;2022-07-10T08:11:45;7.70;;;1.13;;
27039;SDS011;14589;51.578;7.306;2022-07-10T08:14:11;8.60;;;1.52;;
27039;SDS011;14589;51.578;7.306;2022-07-10T08:16:37;4.43;;;1.10;;
27039;SDS011;14589;51.578;7.306;2022-07-10T08:19:03;7.18;;;1.60;;
27039;SDS011;14589;51.578;7.306;2022-07-10T08:21:28;12.45;;;1.98;;
27039;SDS011;14589;51.578;7.306;2022-07-10T08:23:55;6.50;;;1.60;;
27039;SDS011;14589;51.578;7.306;2022-07-10T08:26:20;7.88;;;1.30;;
27039;SDS011;14589;51.578;7.306;2022-07-10T08:28:46;8.48;;;1.63;;
27039;SDS011;14589;51.578;7.306;2022-07-10T08:31:11;5.28;;;1.55;;
27039;SDS011;14589;51.578;7.306;2022-07-10T08:33:37;7.93;;;1.58;;
27039;SDS011;14589;51.578;7.306;2022-07-10T08:36:02;5.38;;;1.50;;
27039;SDS011;14589;51.578;7.306;2022-07-10T08:38:29;8.85;;;1.80;;
27039;SDS011;14589;51.578;7.306;2022-07-10T08:40:54;11.70;;;2.05;;
27039;SDS011;14589;51.578;7.306;2022-07-10T08:43:24;11.68;;;1.65;;
27039;SDS011;14589;51.578;7.306;2022-07-10T08:45:50;9.60;;;1.85;;
27039;SDS011;14589;51.578;7.306;2022-07-10T08:48:16;8.82;;;1.73;;
27039;SDS011;14589;51.578;7.306;2022-07-10T08:50:46;8.07;;;1.85;;
27039;SDS011;14589;51.578;7.306;2022-07-10T08:53:13;14.30;;;1.83;;
27039;SDS011;14589;51.578;7.306;2022-07-10T08:55:43;10.55;;;2.03;;
27039;SDS011;14589;51.578;7.306;2022-07-10T08:58:09;7.80;;;1.88;;
27039;SDS011;14589;51.578;7.306;2022-07-10T09:00:35;10.23;;;1.52;;
27039;SDS011;14589;51.578;7.306;2022-07-10T09:03:00;9.82;;;1.98;;
27039;SDS011;14589;51.578;7.306;2022-07-10T09:05:26;5.20;;;1.60;;
27039;SDS011;14589;51.578;7.306;2022-07-10T09:07:55;7.38;;;1.60;;
27039;SDS011;14589;51.578;7.306;2022-07-10T09:10:23;7.20;;;2.50;;
27039;SDS011;14589;51.578;7.306;2022-07-10T09:12:57;16.77;;;2.00;;
27039;SDS011;14589;51.578;7.306;2022-07-10T09:15:30;3.47;;;1.50;;
27039;SDS011;14589;51.578;7.306;2022-07-10T09:18:01;5.10;;;1.85;;
27039;SDS011;14589;51.578;7.306;2022-07-10T09:20:32;9.35;;;1.70;;
27039;SDS011;14589;51.578;7.306;2022-07-10T09:22:59;9.90;;;1.90;;
27039;SDS011;14589;51.578;7.306;2022-07-10T09:25:35;11.68;;;1.75;;
27039;SDS011;14589;51.578;7.306;2022-07-10T09:28:01;6.03;;;1.95;;
27039;SDS011;14589;51.578;7.306;2022-07-10T09:30:37;8.50;;;2.13;;
27039;SDS011;14589;51.578;7.306;2022-07-10T09:38:55;9.35;;;2.88;;
27039;SDS011;14589;51.578;7.306;2022-07-10T09:43:49;6.75;;;2.85;;
27039;SDS011;14589;51.578;7.306;2022-07-10T09:46:33;4.30;;;2.30;;
27039;SDS011;14589;51.578;7.306;2022-07-10T09:49:04;2.92;;;2.08;;
27039;SDS011;14589;51.578;7.306;2022-07-10T09:51:31;9.30;;;2.90;;
27039;SDS011;14589;51.578;7.306;2022-07-10T09:54:02;6.00;;;2.40;;
27039;SDS011;14589;51.578;7.306;2022-07-10T09:59:15;3.05;;;1.98;;
27039;SDS011;14589;51.578;7.306;2022-07-10T10:01:45;4.18;;;2.08;;
27039;SDS011;14589;51.578;7.306;2022-07-10T10:04:15;3.05;;;2.00;;
27039;SDS011;14589;51.578;7.306;2022-07-10T10:06:42;2.28;;;1.75;;
27039;SDS011;14589;51.578;7.306;2022-07-10T10:09:09;5.43;;;2.10;;
27039;SDS011;14589;51.578;7.306;2022-07-10T10:11:37;5.63;;;2.70;;
27039;SDS011;14589;51.578;7.306;2022-07-10T10:14:06;4.15;;;2.80;;
27039;SDS011;14589;51.578;7.306;2022-07-10T10:16:32;6.45;;;3.17;;
27039;SDS011;14589;51.578;7.306;2022-07-10T10:18:58;4.72;;;2.90;;
27039;SDS011;14589;51.578;7.306;2022-07-10T10:21:42;5.15;;;2.72;;
27039;SDS011;14589;51.578;7.306;2022-07-10T10:24:08;4.28;;;2.15;;
27039;SDS011;14589;51.578;7.306;2022-07-10T10:26:35;5.25;;;2.28;;
27039;SDS011;14589;51.578;7.306;2022-07-10T10:29:01;4.28;;;2.15;;
27039;SDS011;14589;51.578;7.306;2022-07-10T10:31:28;8.05;;;2.22;;
27039;SDS011;14589;51.578;7.306;2022-07-10T10:33:55;5.93;;;2.45;;
27039;SDS011;14589;51.578;7.306;2022-07-10T10:42:02;5.47;;;1.60;;
27039;SDS011;14589;51.578;7.306;2022-07-10T10:44:28;3.03;;;1.60;;
27039;SDS011;14589;51.578;7.306;2022-07-10T10:46:57;7.93;;;1.90;;
27039;SDS011;14589;51.578;7.306;2022-07-10T10:52:26;7.53;;;2.30;;
27039;SDS011;14589;51.578;7.306;2022-07-10T10:59:58;9.20;;;3.13;;
27039;SDS011;14589;51.578;7.306;2022-07-10T11:05:46;8.65;;;4.40;;
27039;SDS011;14589;51.578;7.306;2022-07-10T11:07:58;11.68;;;5.57;;
27039;SDS011;14589;51.578;7.306;2022-07-10T11:10:26;10.50;;;6.30;;
27039;SDS011;14589;51.578;7.306;2022-07-10T11:12:59;11.82;;;6.00;;
27039;SDS011;14589;51.578;7.306;2022-07-10T11:15:26;11.75;;;5.43;;
27039;SDS011;14589;51.578;7.306;2022-07-10T11:17:52;9.95;;;5.88;;
27039;SDS011;14589;51.578;7.306;2022-07-10T11:20:17;8.35;;;5.75;;
27039;SDS011;14589;51.578;7.306;2022-07-10T11:22:49;7.38;;;5.50;;
27039;SDS011;14589;51.578;7.306;2022-07-10T11:25:27;6.95;;;5.60;;
27039;SDS011;14589;51.578;7.306;2022-07-10T11:28:10;9.25;;;5.13;;
27039;SDS011;14589;51.578;7.306;2022-07-10T11:30:43;7.28;;;4.55;;
27039;SDS011;14589;51.578;7.306;2022-07-10T11:33:12;10.55;;;4.63;;
27039;SDS011;14589;51.578;7.306;2022-07-10T11:35:38;5.95;;;4.95;;
27039;SDS011;14589;51.578;7.306;2022-07-10T11:38:05;5.97;;;4.20;;
27039;SDS011;14589;51.578;7.306;2022-07-10T11:40:30;4.30;;;3.72;;
27039;SDS011;14589;51.578;7.306;2022-07-10T11:42:56;4.40;;;3.67;;
27039;SDS011;14589;51.578;7.306;2022-07-10T11:45:23;4.38;;;3.15;;
27039;SDS011;14589;51.578;7.306;2022-07-10T11:47:53;4.90;;;2.90;;
27039;SDS011;14589;51.578;7.306;2022-07-10T11:50:18;3.85;;;2.58;;
27039;SDS011;14589;51.578;7.306;2022-07-10T11:52:45;5.82;;;2.50;;
27039;SDS011;14589;51.578;7.306;2022-07-10T11:55:14;4.38;;;2.17;;
27039;SDS011;14589;51.578;7.306;2022-07-10T11:57:41;2.50;;;1.73;;
27039;SDS011;14589;51.578;7.306;2022-07-10T12:00:20;4.50;;;1.40;;
27039;SDS011;14589;51.578;7.306;2022-07-10T12:02:47;2.78;;;1.42;;
27039;SDS011;14589;51.578;7.306;2022-07-10T12:05:31;2.10;;;1.67;;
27039;SDS011;14589;51.578;7.306;2022-07-10T12:08:00;3.08;;;1.70;;
27039;SDS011;14589;51.578;7.306;2022-07-10T12:10:26;3.58;;;1.73;;
27039;SDS011;14589;51.578;7.306;2022-07-10T12:12:52;2.88;;;2.13;;
27039;SDS011;14589;51.578;7.306;2022-07-10T12:15:33;3.20;;;2.00;;
27039;SDS011;14589;51.578;7.306;2022-07-10T12:17:59;2.10;;;1.23;;
27039;SDS011;14589;51.578;7.306;2022-07-10T12:20:28;2.92;;;1.30;;
27039;SDS011;14589;51.578;7.306;2022-07-10T12:22:56;1.52;;;1.00;;
27039;SDS011;14589;51.578;7.306;2022-07-10T12:25:21;3.40;;;1.38;;
27039;SDS011;14589;51.578;7.306;2022-07-10T12:27:47;2.42;;;1.00;;
27039;SDS011;14589;51.578;7.306;2022-07-10T12:30:12;1.10;;;1.00;;
27039;SDS011;14589;51.578;7.306;2022-07-10T12:32:38;2.65;;;1.35;;
27039;SDS011;14589;51.578;7.306;2022-07-10T12:35:03;1.30;;;1.02;;
27039;SDS011;14589;51.578;7.306;2022-07-10T12:37:32;1.48;;;1.38;;
27039;SDS011;14589;51.578;7.306;2022-07-10T12:39:58;2.13;;;1.20;;
27039;SDS011;14589;51.578;7.306;2022-07-10T12:42:27;1.75;;;1.20;;
27039;SDS011;14589;51.578;7.306;2022-07-10T12:44:54;2.00;;;1.58;;
27039;SDS011;14589;51.578;7.306;2022-07-10T12:47:20;1.75;;;1.50;;
27039;SDS011;14589;51.578;7.306;2022-07-10T12:50:05;3.08;;;1.30;;
27039;SDS011;14589;51.578;7.306;2022-07-10T12:52:35;1.73;;;1.23;;
27039;SDS011;14589;51.578;7.306;2022-07-10T12:55:12;1.27;;;0.95;;
27039;SDS011;14589;51.578;7.306;2022-07-10T13:00:30;3.03;;;1.23;;
27039;SDS011;14589;51.578;7.306;2022-07-10T13:05:34;3.17;;;1.30;;
27039;SDS011;14589;51.578;7.306;2022-07-10T13:10:37;1.55;;;1.13;;
27039;SDS011;14589;51.578;7.306;2022-07-10T13:13:07;0.90;;;0.82;;
27039;SDS011;14589;51.578;7.306;2022-07-10T13:15:32;2.25;;;1.30;;
27039;SDS011;14589;51.578;7.306;2022-07-10T13:18:12;1.00;;;0.90;;
27039;SDS011;14589;51.578;7.306;2022-07-10T13:20:43;1.92;;;1.10;;
27039;SDS011;14589;51.578;7.306;2022-07-10T13:23:11;1.52;;;1.05;;
27039;SDS011;14589;51.578;7.306;2022-07-10T13:25:37;1.67;;;1.23;;
27039;SDS011;14589;51.578;7.306;2022-07-10T13:28:04;2.83;;;1.42;;
27039;SDS011;14589;51.578;7.306;2022-07-10T13:30:30;4.93;;;1.23;;
27039;SDS011;14589;51.578;7.306;2022-07-10T13:32:56;2.42;;;1.67;;
27039;SDS011;14589;51.578;7.306;2022-07-10T13:35:22;3.97;;;1.67;;
27039;SDS011;14589;51.578;7.306;2022-07-10T13:37:48;1.50;;;1.20;;
27039;SDS011;14589;51.578;7.306;2022-07-10T13:40:14;5.72;;;1.30;;
27039;SDS011;14589;51.578;7.306;2022-07-10T13:42:39;2.40;;;1.50;;
27039;SDS011;14589;51.578;7.306;2022-07-10T13:45:05;4.00;;;1.42;;
27039;SDS011;14589;51.578;7.306;2022-07-10T13:47:31;2.22;;;1.55;;
27039;SDS011;14589;51.578;7.306;2022-07-10T13:49:56;2.08;;;1.10;;
27039;SDS011;14589;51.578;7.306;2022-07-10T13:52:22;1.13;;;0.90;;
27039;SDS011;14589;51.578;7.306;2022-07-10T13:54:47;0.85;;;0.85;;
27039;SDS011;14589;51.578;7.306;2022-07-10T13:57:12;1.25;;;0.90;;
27039;SDS011;14589;51.578;7.306;2022-07-10T13:59:38;1.23;;;0.93;;
27039;SDS011;14589;51.578;7.306;2022-07-10T14:02:04;4.07;;;1.00;;
27039;SDS011;14589;51.578;7.306;2022-07-10T14:04:29;1.08;;;0.95;;
27039;SDS011;14589;51.578;7.306;2022-07-10T14:06:55;2.50;;;0.80;;
27039;SDS011;14589;51.578;7.306;2022-07-10T14:09:20;3.80;;;1.00;;
27039;SDS011;14589;51.578;7.306;2022-07-10T14:11:49;1.40;;;1.08;;
27039;SDS011;14589;51.578;7.306;2022-07-10T14:14:14;1.98;;;0.93;;
27039;SDS011;14589;51.578;7.306;2022-07-10T14:16:40;1.92;;;0.88;;
27039;SDS011;14589;51.578;7.306;2022-07-10T14:19:07;1.30;;;0.80;;
27039;SDS011;14589;51.578;7.306;2022-07-10T14:21:33;3.83;;;1.15;;
27039;SDS011;14589;51.578;7.306;2022-07-10T14:23:58;3.63;;;0.90;;
27039;SDS011;14589;51.578;7.306;2022-07-10T14:26:24;3.22;;;1.13;;
27039;SDS011;14589;51.578;7.306;2022-07-10T14:28:49;1.10;;;0.90;;
27039;SDS011;14589;51.578;7.306;2022-07-10T14:31:16;2.25;;;1.15;;
27039;SDS011;14589;51.578;7.306;2022-07-10T14:33:43;1.92;;;1.20;;
27039;SDS011;14589;51.578;7.306;2022-07-10T14:36:08;3.13;;;1.20;;
27039;SDS011;14589;51.578;7.306;2022-07-10T14:38:34;2.38;;;1.50;;
27039;SDS011;14589;51.578;7.306;2022-07-10T14:40:59;2.78;;;1.30;;
27039;SDS011;14589;51.578;7.306;2022-07-10T14:43:25;2.15;;;1.10;;
27039;SDS011;14589;51.578;7.306;2022-07-10T14:45:51;3.90;;;1.80;;
27039;SDS011;14589;51.578;7.306;2022-07-10T14:48:17;3.03;;;1.50;;
27039;SDS011;14589;51.578;7.306;2022-07-10T14:50:42;2.25;;;1.40;;
27039;SDS011;14589;51.578;7.306;2022-07-10T14:53:08;4.20;;;1.50;;
27039;SDS011;14589;51.578;7.306;2022-07-10T14:55:34;2.15;;;1.70;;
27039;SDS011;14589;51.578;7.306;2022-07-10T14:58:00;3.05;;;1.63;;
27039;SDS011;14589;51.578;7.306;2022-07-10T15:00:26;4.60;;;2.10;;
27039;SDS011;14589;51.578;7.306;2022-07-10T15:02:51;2.70;;;1.60;;
27039;SDS011;14589;51.578;7.306;2022-07-10T15:05:17;1.83;;;1.17;;
27039;SDS011;14589;51.578;7.306;2022-07-10T15:07:42;2.35;;;1.55;;
27039;SDS011;14589;51.578;7.306;2022-07-10T15:10:08;2.40;;;1.33;;
27039;SDS011;14589;51.578;7.306;2022-07-10T15:12:34;2.85;;;1.70;;
27039;SDS011;14589;51.578;7.306;2022-07-10T15:15:02;5.55;;;1.50;;
27039;SDS011;14589;51.578;7.306;2022-07-10T15:17:29;1.30;;;1.17;;
27039;SDS011;14589;51.578;7.306;2022-07-10T15:19:55;4.80;;;1.60;;
27039;SDS011;14589;51.578;7.306;2022-07-10T15:22:20;3.35;;;1.80;;